< < Back
Terminal Aerodrome Forecast


Current Version              Previous Versions:   1  2  3  4  5  6  7  8  9  

Terminal Aerodrome Forecast

293
FTUS42 KJAX 220521
TAFJAX
TAF
KJAX 220521Z 2206/2306 30005KT P6SM SKC
     FM221600 01012KT P6SM SCT250
     FM230000 04007KT P6SM SCT250=

Latest METAR

862
SAUS80 KWBC 220800
MTRJAX
METAR KJAX 220756Z 28003KT 10SM CLR 20/18 A3000 RMK AO2 SLP159 T02000178
$


USA.gov is the U.S. government's official web portal to all federal, state and local government web resources and services.